createdAt,value
2023-02-22T00:01:51.141Z,6.23
2023-02-22T00:04:21.350Z,6.23
2023-02-22T00:06:50.798Z,6.23
2023-02-22T00:09:20.777Z,6.23
2023-02-22T00:11:49.263Z,6.22
2023-02-22T00:14:20.401Z,6.16
2023-02-22T00:16:50.614Z,6.12
2023-02-22T00:19:19.046Z,6.10
2023-02-22T00:21:47.437Z,6.11
2023-02-22T00:24:23.817Z,6.10
2023-02-22T00:26:52.698Z,6.11
2023-02-22T00:29:20.480Z,6.10
2023-02-22T00:31:52.227Z,6.10
2023-02-22T00:34:20.173Z,6.09
2023-02-22T00:36:48.287Z,6.09
2023-02-22T00:39:16.188Z,6.06
2023-02-22T00:41:44.352Z,6.04
2023-02-22T00:44:12.690Z,6.03
2023-02-22T00:46:40.444Z,6.00
2023-02-22T00:49:09.580Z,5.99
2023-02-22T00:51:37.293Z,6.00
2023-02-22T00:54:05.376Z,6.02
2023-02-22T00:56:34.138Z,6.04
2023-02-22T00:59:02.214Z,6.02
2023-02-22T01:01:30.335Z,5.98
2023-02-22T01:03:58.174Z,5.99
2023-02-22T01:06:27.431Z,5.99
2023-02-22T01:08:55.224Z,5.96
2023-02-22T01:11:23.380Z,5.94
2023-02-22T01:13:54.114Z,5.93
2023-02-22T01:16:22.676Z,5.89
2023-02-22T01:18:50.620Z,5.89
2023-02-22T01:21:18.716Z,5.89
2023-02-22T01:23:48.443Z,5.87
2023-02-22T01:26:16.284Z,5.86
2023-02-22T01:28:44.051Z,5.84
2023-02-22T01:31:12.545Z,5.82
2023-02-22T01:33:41.449Z,5.78
2023-02-22T01:36:11.474Z,5.77
2023-02-22T01:38:39.494Z,5.75
2023-02-22T01:41:09.006Z,5.74
2023-02-22T01:43:36.743Z,5.71
2023-02-22T01:46:05.664Z,5.70
2023-02-22T01:48:40.116Z,5.65
2023-02-22T01:51:12.454Z,5.64
2023-02-22T01:53:47.327Z,5.69
2023-02-22T01:56:17.161Z,5.65
2023-02-22T01:58:50.201Z,5.65
2023-02-22T02:01:20.863Z,5.64
2023-02-22T02:03:49.369Z,5.65
2023-02-22T02:06:18.012Z,5.65
2023-02-22T02:08:53.959Z,5.61
2023-02-22T02:11:25.775Z,5.58
2023-02-22T02:13:56.059Z,5.52
2023-02-22T02:16:25.703Z,5.48
2023-02-22T02:18:54.324Z,5.45
2023-02-22T02:22:06.504Z,5.42
2023-02-22T02:25:00.230Z,5.43
2023-02-22T02:27:40.294Z,5.42
2023-02-22T02:30:43.623Z,5.42
2023-02-22T02:33:21.939Z,5.43
2023-02-22T02:35:57.542Z,5.44
2023-02-22T02:38:35.249Z,5.43
2023-02-22T02:41:11.826Z,5.40
2023-02-22T02:43:46.937Z,5.36
2023-02-22T02:46:19.444Z,5.35
2023-02-22T02:48:54.806Z,5.35
2023-02-22T02:51:24.074Z,5.34
2023-02-22T02:53:53.567Z,5.33
2023-02-22T02:56:23.376Z,5.30
2023-02-22T02:58:53.306Z,5.26
2023-02-22T03:01:42.987Z,5.25
2023-02-22T03:04:28.491Z,5.25
2023-02-22T03:07:12.063Z,5.24
2023-02-22T03:09:49.388Z,5.23
2023-02-22T03:12:29.073Z,5.25
2023-02-22T03:15:08.338Z,5.25
2023-02-22T03:17:44.327Z,5.25
2023-02-22T03:20:21.966Z,5.24
2023-02-22T03:22:56.326Z,5.26
2023-02-22T03:25:29.119Z,5.27
2023-02-22T03:28:02.343Z,5.26
2023-02-22T03:30:36.882Z,5.25
2023-02-22T03:33:10.549Z,5.25
2023-02-22T03:35:44.642Z,5.25
2023-02-22T03:38:14.454Z,5.25
2023-02-22T03:40:46.334Z,5.24
2023-02-22T03:43:17.683Z,5.27
2023-02-22T03:45:48.216Z,5.27
2023-02-22T03:48:21.424Z,5.27
2023-02-22T03:50:51.963Z,5.27
2023-02-22T03:53:23.118Z,5.25
2023-02-22T03:55:52.801Z,5.24
2023-02-22T03:58:23.924Z,5.23
2023-02-22T04:00:53.096Z,5.19
2023-02-22T04:03:21.502Z,5.15
2023-02-22T04:05:50.875Z,5.11
2023-02-22T04:08:18.725Z,5.07
2023-02-22T04:10:46.735Z,5.07
2023-02-22T04:13:14.684Z,5.06
2023-02-22T04:15:42.526Z,5.08
2023-02-22T04:18:10.275Z,5.06
2023-02-22T04:20:38.012Z,5.07
2023-02-22T04:23:07.471Z,5.04
2023-02-22T04:25:35.235Z,5.03
2023-02-22T04:28:04.001Z,5.01
2023-02-22T04:30:31.950Z,5.00
2023-02-22T04:32:59.815Z,4.97
2023-02-22T04:35:27.663Z,4.93
2023-02-22T04:37:55.417Z,4.92
2023-02-22T04:40:24.672Z,4.92
2023-02-22T04:42:52.390Z,4.93
2023-02-22T04:45:20.417Z,4.94
2023-02-22T04:47:48.290Z,4.92
2023-02-22T04:50:17.260Z,4.91
2023-02-22T04:52:45.668Z,4.91
2023-02-22T04:55:13.435Z,4.92
2023-02-22T04:57:42.558Z,4.93
2023-02-22T05:00:11.436Z,4.91
2023-02-22T05:02:40.031Z,4.88
2023-02-22T05:05:08.483Z,4.89
2023-02-22T05:07:36.255Z,4.87
2023-02-22T05:10:04.114Z,4.88
2023-02-22T05:12:31.818Z,4.88
2023-02-22T05:15:00.919Z,4.89
2023-02-22T05:17:28.723Z,4.88
2023-02-22T05:19:56.540Z,4.84
2023-02-22T05:22:24.520Z,4.84
2023-02-22T05:24:52.958Z,4.83
2023-02-22T05:27:21.853Z,4.84
2023-02-22T05:29:49.826Z,4.82
2023-02-22T05:32:19.004Z,4.84
2023-02-22T05:34:46.799Z,4.83
2023-02-22T05:37:14.564Z,4.81
2023-02-22T05:39:42.299Z,4.81
2023-02-22T05:42:10.035Z,4.76
2023-02-22T05:44:37.794Z,4.73
2023-02-22T05:47:05.628Z,4.71
2023-02-22T05:49:34.763Z,4.73
2023-02-22T05:52:02.538Z,4.74
2023-02-22T05:54:30.282Z,4.74
2023-02-22T05:56:58.036Z,4.74
2023-02-22T05:59:25.778Z,4.72
2023-02-22T06:01:53.538Z,4.71
2023-02-22T06:04:21.316Z,4.69
2023-02-22T06:06:50.410Z,4.71
2023-02-22T06:09:18.276Z,4.70
2023-02-22T06:11:46.031Z,4.69
2023-02-22T06:14:13.783Z,4.66
2023-02-22T06:16:41.618Z,4.63
2023-02-22T06:19:09.455Z,4.63
2023-02-22T06:21:37.195Z,4.65
2023-02-22T06:24:07.031Z,4.65
2023-02-22T06:26:34.779Z,4.60
2023-02-22T06:29:02.529Z,4.59
2023-02-22T06:31:31.804Z,4.61
2023-02-22T06:33:59.525Z,4.60
2023-02-22T06:36:27.249Z,4.62
2023-02-22T06:38:55.087Z,4.60
2023-02-22T06:41:24.555Z,4.63
2023-02-22T06:43:52.298Z,4.65
2023-02-22T06:46:21.187Z,4.66
2023-02-22T06:48:50.058Z,4.69
2023-02-22T06:51:18.074Z,4.72
2023-02-22T06:53:46.056Z,4.77
2023-02-22T06:56:13.872Z,4.74
2023-02-22T06:58:42.979Z,4.72
2023-02-22T07:01:10.879Z,4.70
2023-02-22T07:03:38.783Z,4.72
2023-02-22T07:06:08.154Z,4.74
2023-02-22T07:08:35.892Z,4.76
2023-02-22T07:11:03.668Z,4.78
2023-02-22T07:13:31.422Z,4.79
2023-02-22T07:16:00.629Z,4.79
2023-02-22T07:18:30.010Z,4.81
2023-02-22T07:20:58.697Z,4.79
2023-02-22T07:23:27.082Z,4.80
2023-02-22T07:25:54.827Z,4.82
2023-02-22T07:28:22.613Z,4.85
2023-02-22T07:30:50.329Z,4.90
2023-02-22T07:33:19.499Z,4.89
2023-02-22T07:35:49.708Z,4.89
2023-02-22T07:38:18.860Z,4.90
2023-02-22T07:40:46.969Z,4.92
2023-02-22T07:43:17.773Z,4.92
2023-02-22T07:45:46.354Z,4.96
2023-02-22T07:48:17.407Z,4.97
2023-02-22T07:50:47.405Z,4.99
2023-02-22T07:53:18.717Z,5.01
2023-02-22T07:55:46.565Z,5.03
2023-02-22T07:58:16.413Z,5.03
2023-02-22T08:00:45.029Z,5.04
2023-02-22T08:03:14.588Z,5.06
2023-02-22T08:05:43.881Z,5.06
2023-02-22T08:08:14.682Z,5.06
2023-02-22T08:10:43.239Z,5.05
2023-02-22T08:13:11.114Z,5.04
2023-02-22T08:15:40.242Z,5.06
2023-02-22T08:18:10.135Z,5.07
2023-02-22T08:20:39.376Z,5.06
2023-02-22T08:23:07.880Z,5.08
2023-02-22T08:25:37.371Z,5.08
2023-02-22T08:28:06.978Z,5.09
2023-02-22T08:30:38.315Z,5.08
2023-02-22T08:33:08.038Z,5.07
2023-02-22T08:35:35.881Z,5.06
2023-02-22T08:38:06.009Z,5.05
2023-02-22T08:40:35.792Z,5.06
2023-02-22T08:43:06.615Z,5.06
2023-02-22T08:45:34.508Z,5.07
2023-02-22T08:48:02.278Z,5.09
2023-02-22T08:50:33.622Z,5.09
2023-02-22T08:53:03.175Z,5.13
2023-02-22T08:55:33.296Z,5.19
2023-02-22T08:58:03.060Z,5.23
2023-02-22T09:00:34.083Z,5.25
2023-02-22T09:03:02.626Z,5.26
2023-02-22T09:05:31.603Z,5.29
2023-02-22T09:08:00.093Z,5.32
2023-02-22T09:10:29.934Z,5.36
2023-02-22T09:12:58.336Z,5.36
2023-02-22T09:15:27.007Z,5.41
2023-02-22T09:17:56.757Z,5.38
2023-02-22T09:20:26.050Z,5.40
2023-02-22T09:22:54.709Z,5.45
2023-02-22T09:25:23.333Z,5.48
2023-02-22T09:27:52.844Z,5.54
2023-02-22T09:30:24.770Z,5.63
2023-02-22T09:32:54.783Z,5.73
2023-02-22T09:35:27.142Z,5.76
2023-02-22T09:37:56.383Z,5.78
2023-02-22T09:40:30.034Z,5.78
2023-02-22T09:43:03.094Z,5.81
2023-02-22T09:45:36.927Z,5.84
2023-02-22T09:48:19.407Z,5.84
2023-02-22T09:50:53.814Z,5.89
2023-02-22T09:53:29.671Z,5.90
2023-02-22T09:56:01.714Z,5.88
2023-02-22T09:58:33.681Z,5.91
2023-02-22T10:01:17.663Z,5.94
2023-02-22T10:03:52.115Z,6.02
2023-02-22T10:06:25.529Z,6.06
2023-02-22T10:08:58.386Z,6.12
2023-02-22T10:11:41.318Z,6.17
2023-02-22T10:14:31.035Z,6.25
2023-02-22T10:17:04.343Z,6.31
2023-02-22T10:19:44.242Z,6.35
2023-02-22T10:22:31.371Z,6.38
2023-02-22T10:25:02.268Z,6.41
2023-02-22T10:27:34.254Z,6.47
2023-02-22T10:30:22.373Z,6.54
2023-02-22T10:32:56.480Z,6.64
2023-02-22T10:35:26.209Z,6.71
2023-02-22T10:38:00.745Z,6.75
2023-02-22T10:40:33.093Z,6.80
2023-02-22T10:43:06.172Z,6.84
2023-02-22T10:45:37.207Z,6.87
2023-02-22T10:48:11.588Z,6.91
2023-02-22T10:50:41.541Z,6.96
2023-02-22T10:53:12.050Z,7.00
2023-02-22T10:56:13.783Z,7.06
2023-02-22T10:58:48.293Z,7.12
2023-02-22T11:01:26.179Z,7.16
2023-02-22T11:04:02.552Z,7.20
2023-02-22T11:06:30.869Z,7.27
2023-02-22T11:09:18.984Z,7.28
2023-02-22T11:11:48.678Z,7.33
2023-02-22T11:14:28.032Z,7.41
2023-02-22T11:16:57.727Z,7.47
2023-02-22T11:19:27.637Z,7.54
2023-02-22T11:21:58.279Z,7.60
2023-02-22T11:24:37.287Z,7.65
2023-02-22T11:27:25.147Z,7.69
2023-02-22T11:29:53.704Z,7.71
2023-02-22T11:32:22.470Z,7.73
2023-02-22T11:35:03.549Z,7.75
2023-02-22T11:37:38.023Z,7.79
2023-02-22T11:40:17.767Z,7.84
2023-02-22T11:42:46.100Z,7.87
2023-02-22T11:45:20.719Z,7.91
2023-02-22T11:47:53.870Z,7.93
2023-02-22T11:50:32.933Z,7.97
2023-02-22T11:53:22.481Z,7.98
2023-02-22T11:56:04.593Z,8.01
2023-02-22T11:58:42.869Z,8.03
2023-02-22T12:01:20.957Z,8.10
2023-02-22T12:04:17.014Z,8.13
2023-02-22T12:06:52.912Z,8.15
2023-02-22T12:09:28.030Z,8.16
2023-02-22T12:12:10.517Z,8.22
2023-02-22T12:14:45.248Z,8.27
2023-02-22T12:17:25.508Z,8.32
2023-02-22T12:19:58.780Z,8.37
2023-02-22T12:22:34.166Z,8.41
2023-02-22T12:25:09.715Z,8.47
2023-02-22T12:27:45.245Z,8.53
2023-02-22T12:30:20.716Z,8.60
2023-02-22T12:32:52.054Z,8.66
2023-02-22T12:35:22.956Z,8.70
2023-02-22T12:38:01.728Z,8.72
2023-02-22T12:40:36.728Z,8.75
2023-02-22T12:43:16.677Z,8.80
2023-02-22T12:45:50.325Z,8.85
2023-02-22T12:48:27.356Z,8.89
2023-02-22T12:50:59.372Z,8.94
2023-02-22T12:53:31.589Z,8.99
2023-02-22T12:56:05.844Z,9.03
2023-02-22T12:58:46.691Z,9.09
2023-02-22T13:01:20.297Z,9.14
2023-02-22T13:03:49.164Z,9.19
2023-02-22T13:06:36.735Z,9.27
2023-02-22T13:09:24.394Z,9.29
2023-02-22T13:12:02.576Z,9.32
2023-02-22T13:14:45.842Z,9.30
2023-02-22T13:17:21.277Z,9.32
2023-02-22T13:19:59.029Z,9.32
2023-02-22T13:22:35.157Z,9.30
2023-02-22T13:25:11.217Z,9.26
2023-02-22T13:27:43.916Z,9.28
2023-02-22T13:30:23.052Z,9.32
2023-02-22T13:33:01.946Z,9.38
2023-02-22T13:35:59.177Z,9.38
2023-02-22T13:39:13.021Z,9.41
2023-02-22T13:41:51.900Z,9.41
2023-02-22T13:44:52.475Z,9.42
2023-02-22T13:47:49.785Z,9.44
2023-02-22T13:50:42.608Z,9.45
2023-02-22T13:53:15.616Z,9.48
2023-02-22T13:55:49.446Z,9.52
2023-02-22T13:58:17.120Z,9.52
2023-02-22T14:00:51.159Z,9.57
2023-02-22T14:03:36.185Z,9.59
2023-02-22T14:06:06.342Z,9.59
2023-02-22T14:08:46.666Z,9.61
2023-02-22T14:11:45.424Z,9.63
2023-02-22T14:14:17.251Z,9.68
2023-02-22T14:16:45.527Z,9.69
2023-02-22T14:19:23.495Z,9.71
2023-02-22T14:22:02.089Z,9.71
2023-02-22T14:24:35.090Z,9.75
2023-02-22T14:27:05.089Z,9.76
2023-02-22T14:29:33.170Z,9.76
2023-02-22T14:32:07.526Z,9.75
2023-02-22T14:34:46.620Z,9.75
2023-02-22T14:37:19.047Z,9.76
2023-02-22T14:39:51.195Z,9.78
2023-02-22T14:42:24.996Z,9.80
2023-02-22T14:45:00.520Z,9.82
2023-02-22T14:47:40.370Z,9.85
2023-02-22T14:50:16.163Z,9.84
2023-02-22T14:52:47.481Z,9.83
2023-02-22T14:55:21.435Z,9.83
2023-02-22T14:58:01.358Z,9.82
2023-02-22T15:00:38.522Z,9.77
2023-02-22T15:03:06.331Z,9.78
2023-02-22T15:05:39.291Z,9.78
2023-02-22T15:08:09.215Z,9.78
2023-02-22T15:10:43.824Z,9.74
2023-02-22T15:13:20.461Z,9.75
2023-02-22T15:15:49.940Z,9.75
2023-02-22T15:18:25.248Z,9.73
2023-02-22T15:20:59.455Z,9.71
2023-02-22T15:23:30.789Z,9.68
2023-02-22T15:25:59.171Z,9.65
2023-02-22T15:28:30.948Z,9.62
2023-02-22T15:31:24.952Z,9.59
2023-02-22T15:33:54.770Z,9.56
2023-02-22T15:36:28.619Z,9.52
2023-02-22T15:38:56.935Z,9.44
2023-02-22T15:41:29.078Z,9.45
2023-02-22T15:44:08.076Z,9.44
2023-02-22T15:46:42.063Z,9.40
2023-02-22T15:49:23.234Z,9.39
2023-02-22T15:52:04.480Z,9.38
2023-02-22T15:54:40.899Z,9.39
2023-02-22T15:57:09.406Z,9.38
2023-02-22T15:59:44.985Z,9.35
2023-02-22T16:02:32.388Z,9.34
2023-02-22T16:05:03.899Z,9.32
2023-02-22T16:07:33.646Z,9.28
2023-02-22T16:10:08.956Z,9.30
2023-02-22T16:12:37.276Z,9.30
2023-02-22T16:15:16.644Z,9.28
2023-02-22T16:18:01.076Z,9.29
2023-02-22T16:20:36.589Z,9.24
2023-02-22T16:23:27.215Z,9.20
2023-02-22T16:26:07.145Z,9.18
2023-02-22T16:28:35.965Z,9.17
2023-02-22T16:31:04.756Z,9.17
2023-02-22T16:33:33.923Z,9.15
2023-02-22T16:36:08.159Z,9.12
2023-02-22T16:38:39.200Z,9.08
2023-02-22T16:41:08.179Z,9.03
2023-02-22T16:43:36.812Z,9.02
2023-02-22T16:46:06.900Z,9.03
2023-02-22T16:48:38.176Z,9.05
2023-02-22T16:51:14.959Z,9.06
2023-02-22T16:53:44.612Z,9.07
2023-02-22T16:56:16.304Z,9.07
2023-02-22T16:58:47.215Z,9.04
2023-02-22T17:01:15.014Z,8.98
2023-02-22T17:03:42.964Z,8.91
2023-02-22T17:06:11.525Z,8.87
2023-02-22T17:08:40.207Z,8.86
2023-02-22T17:11:11.846Z,8.86
2023-02-22T17:13:41.543Z,8.85
2023-02-22T17:16:14.725Z,8.85
2023-02-22T17:18:42.758Z,8.84
2023-02-22T17:21:12.304Z,8.86
2023-02-22T17:23:40.103Z,8.82
2023-02-22T17:26:09.267Z,8.78
2023-02-22T17:28:37.101Z,8.77
2023-02-22T17:31:05.199Z,8.74
2023-02-22T17:33:36.657Z,8.73
2023-02-22T17:36:06.293Z,8.71
2023-02-22T17:38:34.804Z,8.67
2023-02-22T17:41:03.225Z,8.64
2023-02-22T17:43:32.405Z,8.63
2023-02-22T17:46:00.333Z,8.62
2023-02-22T17:48:28.732Z,8.63
2023-02-22T17:50:56.466Z,8.61
2023-02-22T17:53:25.471Z,8.60
2023-02-22T17:55:53.479Z,8.59
2023-02-22T17:58:22.344Z,8.58
2023-02-22T18:00:51.862Z,8.58
2023-02-22T18:03:25.464Z,8.59
2023-02-22T18:06:01.398Z,8.56
2023-02-22T18:08:31.144Z,8.53
2023-02-22T18:11:02.037Z,8.53
2023-02-22T18:13:30.129Z,8.54
2023-02-22T18:16:00.619Z,8.53
2023-02-22T18:18:28.962Z,8.54
2023-02-22T18:20:59.851Z,8.55
2023-02-22T18:23:29.699Z,8.57
2023-02-22T18:26:10.083Z,8.56
2023-02-22T18:28:38.748Z,8.55
2023-02-22T18:31:09.816Z,8.55
2023-02-22T18:33:38.097Z,8.57
2023-02-22T18:36:06.947Z,8.57
2023-02-22T18:38:34.735Z,8.58
2023-02-22T18:41:03.961Z,8.56
2023-02-22T18:43:34.390Z,8.57
2023-02-22T18:46:11.678Z,8.56
2023-02-22T18:48:39.928Z,8.57
2023-02-22T18:51:09.821Z,8.58
2023-02-22T18:53:38.614Z,8.55
2023-02-22T18:56:08.374Z,8.55
2023-02-22T18:58:38.849Z,8.55
2023-02-22T19:01:08.021Z,8.54
2023-02-22T19:03:38.427Z,8.54
2023-02-22T19:06:09.157Z,8.54
2023-02-22T19:08:39.644Z,8.49
2023-02-22T19:11:09.319Z,8.45
2023-02-22T19:13:37.580Z,8.44
2023-02-22T19:16:07.253Z,8.42
2023-02-22T19:18:35.383Z,8.42
2023-02-22T19:21:09.598Z,8.42
2023-02-22T19:23:39.509Z,8.41
2023-02-22T19:26:09.364Z,8.38
2023-02-22T19:28:37.196Z,8.34
2023-02-22T19:31:13.492Z,8.29
2023-02-22T19:33:41.584Z,8.22
2023-02-22T19:36:12.385Z,8.17
2023-02-22T19:38:40.666Z,8.18
2023-02-22T19:41:10.828Z,8.16
2023-02-22T19:43:38.782Z,8.16
2023-02-22T19:46:07.654Z,8.16
2023-02-22T19:48:36.018Z,8.13
2023-02-22T19:51:06.234Z,8.11
2023-02-22T19:53:35.914Z,8.09
2023-02-22T19:56:09.545Z,8.08
2023-02-22T19:58:37.876Z,8.06
2023-02-22T20:01:16.016Z,8.07
2023-02-22T20:03:44.156Z,8.08
2023-02-22T20:06:16.261Z,8.08
2023-02-22T20:08:45.561Z,8.07
2023-02-22T20:11:14.314Z,8.06
2023-02-22T20:13:43.656Z,8.06
2023-02-22T20:16:15.619Z,8.04
2023-02-22T20:18:43.655Z,8.00
2023-02-22T20:21:15.185Z,7.94
2023-02-22T20:23:44.420Z,7.95
2023-02-22T20:26:18.463Z,7.93
2023-02-22T20:28:46.935Z,7.93
2023-02-22T20:31:16.316Z,7.94
2023-02-22T20:33:45.671Z,7.92
2023-02-22T20:36:15.375Z,7.89
2023-02-22T20:38:43.806Z,7.88
2023-02-22T20:41:17.234Z,7.88
2023-02-22T20:43:45.217Z,7.90
2023-02-22T20:46:13.154Z,7.89
2023-02-22T20:48:41.031Z,7.87
2023-02-22T20:51:10.102Z,7.85
2023-02-22T20:53:41.743Z,7.87
2023-02-22T20:56:13.794Z,7.89
2023-02-22T20:58:43.835Z,7.88
2023-02-22T21:01:13.907Z,7.86
2023-02-22T21:03:42.906Z,7.87
2023-02-22T21:06:11.934Z,7.88
2023-02-22T21:08:40.110Z,7.88
2023-02-22T21:11:11.859Z,7.89
2023-02-22T21:13:39.826Z,7.88
2023-02-22T21:16:11.305Z,7.87
2023-02-22T21:18:39.153Z,7.86
2023-02-22T21:21:10.373Z,7.87
2023-02-22T21:23:38.546Z,7.86
2023-02-22T21:26:07.311Z,7.87
2023-02-22T21:28:50.417Z,7.88
2023-02-22T21:31:22.321Z,7.87
2023-02-22T21:33:51.778Z,7.87
2023-02-22T21:36:19.880Z,7.89
2023-02-22T21:38:53.245Z,7.86
2023-02-22T21:41:22.124Z,7.86
2023-02-22T21:43:51.436Z,7.85
2023-02-22T21:46:20.875Z,7.86
2023-02-22T21:48:49.377Z,7.86
2023-02-22T21:51:19.878Z,7.84
2023-02-22T21:53:49.554Z,7.83
2023-02-22T21:56:19.641Z,7.81
2023-02-22T21:58:50.149Z,7.83
2023-02-22T22:01:18.358Z,7.81
2023-02-22T22:03:48.061Z,7.81
2023-02-22T22:06:15.846Z,7.81
2023-02-22T22:08:46.336Z,7.81
2023-02-22T22:11:17.953Z,7.80
2023-02-22T22:13:46.328Z,7.80
2023-02-22T22:16:16.439Z,7.80
2023-02-22T22:18:45.947Z,7.82
2023-02-22T22:21:18.050Z,7.81
2023-02-22T22:23:47.532Z,7.81
2023-02-22T22:26:16.895Z,7.80
2023-02-22T22:28:46.264Z,7.78
2023-02-22T22:31:15.729Z,7.77
2023-02-22T22:33:45.360Z,7.75
2023-02-22T22:36:16.679Z,7.73
2023-02-22T22:38:47.181Z,7.73
2023-02-22T22:41:17.103Z,7.75
2023-02-22T22:43:46.188Z,7.76
2023-02-22T22:46:15.165Z,7.74
2023-02-22T22:48:43.503Z,7.74
2023-02-22T22:51:14.483Z,7.75
2023-02-22T22:53:45.601Z,7.75
2023-02-22T22:56:16.313Z,7.75
2023-02-22T22:58:47.727Z,7.74
2023-02-22T23:01:19.733Z,7.73
2023-02-22T23:03:55.092Z,7.73
2023-02-22T23:06:25.939Z,7.72
2023-02-22T23:09:10.259Z,7.69
2023-02-22T23:11:44.570Z,7.69
2023-02-22T23:14:14.877Z,7.70
2023-02-22T23:16:43.044Z,7.68
2023-02-22T23:19:11.021Z,7.67
2023-02-22T23:21:39.480Z,7.67
2023-02-22T23:24:08.938Z,7.66
2023-02-22T23:26:36.912Z,7.66
2023-02-22T23:29:05.478Z,7.66
2023-02-22T23:31:33.402Z,7.67
2023-02-22T23:34:06.658Z,7.66
2023-02-22T23:36:34.630Z,7.66
2023-02-22T23:39:02.387Z,7.67
2023-02-22T23:41:31.540Z,7.66
2023-02-22T23:44:00.067Z,7.67
2023-02-22T23:46:32.712Z,7.66
2023-02-22T23:49:02.649Z,7.64
2023-02-22T23:51:39.216Z,7.66
2023-02-22T23:54:09.122Z,7.67
2023-02-22T23:56:40.317Z,7.65
2023-02-22T23:59:11.248Z,7.64
